Terminal Aerodrome Forecast
Issued by NWS Bismarck, ND

Home | Current Version | Previous Version | Text Only | Print | Product List | Glossary On
Versions: 1 2 3 4 5 6 7 8 9 10 11 12 13 14 15 16
620
FTUS43 KBIS 220526
TAFISN
TAF
KISN 220526Z 2206/2306 27006KT P6SM SKC
     FM220800 23006KT P6SM SKC
     FM221600 21010KT P6SM OVC100
     FM221800 23016G24KT P6SM OVC070 WS020/25035KT
     FM222200 26019G28KT P6SM BKN110 WS020/26040KT
     FM230300 28016G24KT P6SM SCT130 WS020/28050KT=

USA.gov is the U.S. government's official web portal to all federal, state and local government web resources and services.